sensor_id;sensor_type;location;lat;lon;timestamp;P1;durP1;ratioP1;P2;durP2;ratioP2
52586;SDS011;38480;52.724;6.436;2023-02-14T00:02:06;111.07;;;40.17;;
52586;SDS011;38480;52.724;6.436;2023-02-14T00:04:33;67.70;;;26.47;;
52586;SDS011;38480;52.724;6.436;2023-02-14T00:07:02;65.97;;;25.37;;
52586;SDS011;38480;52.724;6.436;2023-02-14T00:09:28;110.47;;;30.50;;
52586;SDS011;38480;52.724;6.436;2023-02-14T00:11:54;97.43;;;33.87;;
52586;SDS011;38480;52.724;6.436;2023-02-14T00:14:20;136.63;;;43.80;;
52586;SDS011;38480;52.724;6.436;2023-02-14T00:17:05;127.23;;;41.83;;
52586;SDS011;38480;52.724;6.436;2023-02-14T00:19:31;99.67;;;39.60;;
52586;SDS011;38480;52.724;6.436;2023-02-14T00:21:58;105.60;;;37.87;;
52586;SDS011;38480;52.724;6.436;2023-02-14T00:24:25;113.80;;;39.37;;
52586;SDS011;38480;52.724;6.436;2023-02-14T00:26:51;88.47;;;33.73;;
52586;SDS011;38480;52.724;6.436;2023-02-14T00:29:21;104.10;;;36.97;;
52586;SDS011;38480;52.724;6.436;2023-02-14T00:31:48;195.77;;;36.03;;
52586;SDS011;38480;52.724;6.436;2023-02-14T00:34:15;137.23;;;35.47;;
52586;SDS011;38480;52.724;6.436;2023-02-14T00:36:41;102.40;;;33.70;;
52586;SDS011;38480;52.724;6.436;2023-02-14T00:39:08;83.87;;;31.13;;
52586;SDS011;38480;52.724;6.436;2023-02-14T00:41:34;106.70;;;36.47;;
52586;SDS011;38480;52.724;6.436;2023-02-14T00:44:00;95.80;;;33.23;;
52586;SDS011;38480;52.724;6.436;2023-02-14T00:46:27;84.60;;;32.47;;
52586;SDS011;38480;52.724;6.436;2023-02-14T00:48:53;93.33;;;33.93;;
52586;SDS011;38480;52.724;6.436;2023-02-14T00:51:19;104.43;;;33.53;;
52586;SDS011;38480;52.724;6.436;2023-02-14T00:53:46;111.07;;;39.80;;
52586;SDS011;38480;52.724;6.436;2023-02-14T00:56:12;108.53;;;40.07;;
52586;SDS011;38480;52.724;6.436;2023-02-14T00:58:39;122.13;;;43.83;;
52586;SDS011;38480;52.724;6.436;2023-02-14T01:01:05;113.63;;;39.00;;
52586;SDS011;38480;52.724;6.436;2023-02-14T01:03:32;105.10;;;36.33;;
52586;SDS011;38480;52.724;6.436;2023-02-14T01:05:58;112.43;;;39.33;;
52586;SDS011;38480;52.724;6.436;2023-02-14T01:08:24;84.83;;;33.03;;
52586;SDS011;38480;52.724;6.436;2023-02-14T01:10:50;141.00;;;38.93;;
52586;SDS011;38480;52.724;6.436;2023-02-14T01:13:17;122.93;;;40.83;;
52586;SDS011;38480;52.724;6.436;2023-02-14T01:15:44;143.90;;;45.57;;
52586;SDS011;38480;52.724;6.436;2023-02-14T01:18:11;132.50;;;46.60;;
52586;SDS011;38480;52.724;6.436;2023-02-14T01:20:37;113.87;;;42.27;;
52586;SDS011;38480;52.724;6.436;2023-02-14T01:23:03;124.87;;;42.37;;
52586;SDS011;38480;52.724;6.436;2023-02-14T01:25:29;115.67;;;41.60;;
52586;SDS011;38480;52.724;6.436;2023-02-14T01:27:56;176.83;;;53.23;;
52586;SDS011;38480;52.724;6.436;2023-02-14T01:30:22;169.63;;;53.70;;
52586;SDS011;38480;52.724;6.436;2023-02-14T01:32:48;199.67;;;58.77;;
52586;SDS011;38480;52.724;6.436;2023-02-14T01:35:14;172.63;;;54.53;;
52586;SDS011;38480;52.724;6.436;2023-02-14T01:37:40;184.47;;;57.57;;
52586;SDS011;38480;52.724;6.436;2023-02-14T01:40:07;175.00;;;59.00;;
52586;SDS011;38480;52.724;6.436;2023-02-14T01:42:34;193.63;;;58.70;;
52586;SDS011;38480;52.724;6.436;2023-02-14T01:45:02;191.57;;;54.80;;
52586;SDS011;38480;52.724;6.436;2023-02-14T01:47:29;163.10;;;51.57;;
52586;SDS011;38480;52.724;6.436;2023-02-14T01:49:58;177.07;;;56.90;;
52586;SDS011;38480;52.724;6.436;2023-02-14T01:52:26;213.50;;;63.47;;
52586;SDS011;38480;52.724;6.436;2023-02-14T01:54:55;177.77;;;56.97;;
52586;SDS011;38480;52.724;6.436;2023-02-14T01:57:22;143.07;;;49.00;;
52586;SDS011;38480;52.724;6.436;2023-02-14T01:59:53;187.30;;;59.00;;
52586;SDS011;38480;52.724;6.436;2023-02-14T02:02:21;148.33;;;52.23;;
52586;SDS011;38480;52.724;6.436;2023-02-14T02:04:48;191.80;;;59.97;;
52586;SDS011;38480;52.724;6.436;2023-02-14T02:07:20;216.73;;;63.70;;
52586;SDS011;38480;52.724;6.436;2023-02-14T02:12:17;213.63;;;64.13;;
52586;SDS011;38480;52.724;6.436;2023-02-14T02:14:43;155.87;;;53.13;;
52586;SDS011;38480;52.724;6.436;2023-02-14T02:24:54;165.03;;;54.13;;
52586;SDS011;38480;52.724;6.436;2023-02-14T02:27:24;211.80;;;64.63;;
52586;SDS011;38480;52.724;6.436;2023-02-14T02:32:25;190.83;;;60.03;;
52586;SDS011;38480;52.724;6.436;2023-02-14T02:37:45;193.13;;;59.50;;
52586;SDS011;38480;52.724;6.436;2023-02-14T02:43:14;153.13;;;49.87;;
52586;SDS011;38480;52.724;6.436;2023-02-14T02:48:31;259.30;;;69.47;;
52586;SDS011;38480;52.724;6.436;2023-02-14T02:51:00;170.33;;;56.60;;
52586;SDS011;38480;52.724;6.436;2023-02-14T02:53:48;192.80;;;63.00;;
52586;SDS011;38480;52.724;6.436;2023-02-14T02:56:21;148.00;;;53.97;;
52586;SDS011;38480;52.724;6.436;2023-02-14T02:59:10;161.73;;;55.03;;
52586;SDS011;38480;52.724;6.436;2023-02-14T03:01:42;180.43;;;57.67;;
52586;SDS011;38480;52.724;6.436;2023-02-14T03:04:10;200.37;;;59.10;;
52586;SDS011;38480;52.724;6.436;2023-02-14T03:06:55;182.37;;;56.67;;
52586;SDS011;38480;52.724;6.436;2023-02-14T03:11:56;201.60;;;61.57;;
52586;SDS011;38480;52.724;6.436;2023-02-14T03:14:31;167.87;;;55.70;;
52586;SDS011;38480;52.724;6.436;2023-02-14T03:17:02;169.27;;;58.90;;
52586;SDS011;38480;52.724;6.436;2023-02-14T03:30:45;136.20;;;47.67;;
52586;SDS011;38480;52.724;6.436;2023-02-14T03:33:21;116.20;;;45.07;;
52586;SDS011;38480;52.724;6.436;2023-02-14T03:38:42;114.57;;;43.85;;
52586;SDS011;38480;52.724;6.436;2023-02-14T03:41:13;141.87;;;49.30;;
52586;SDS011;38480;52.724;6.436;2023-02-14T03:43:41;213.47;;;62.60;;
52586;SDS011;38480;52.724;6.436;2023-02-14T03:48:38;126.33;;;47.40;;
52586;SDS011;38480;52.724;6.436;2023-02-14T03:51:05;218.60;;;62.83;;
52586;SDS011;38480;52.724;6.436;2023-02-14T03:53:33;157.47;;;54.33;;
52586;SDS011;38480;52.724;6.436;2023-02-14T03:56:09;121.20;;;46.57;;
52586;SDS011;38480;52.724;6.436;2023-02-14T03:58:38;184.57;;;60.03;;
52586;SDS011;38480;52.724;6.436;2023-02-14T04:01:12;155.03;;;54.67;;
52586;SDS011;38480;52.724;6.436;2023-02-14T04:03:40;152.57;;;54.20;;
52586;SDS011;38480;52.724;6.436;2023-02-14T04:06:07;121.93;;;47.30;;
52586;SDS011;38480;52.724;6.436;2023-02-14T04:08:33;112.40;;;46.70;;
52586;SDS011;38480;52.724;6.436;2023-02-14T04:11:00;134.60;;;49.43;;
52586;SDS011;38480;52.724;6.436;2023-02-14T04:13:27;124.07;;;42.63;;
52586;SDS011;38480;52.724;6.436;2023-02-14T04:15:53;131.20;;;46.20;;
52586;SDS011;38480;52.724;6.436;2023-02-14T04:18:19;149.40;;;49.63;;
52586;SDS011;38480;52.724;6.436;2023-02-14T04:21:04;149.30;;;49.17;;
52586;SDS011;38480;52.724;6.436;2023-02-14T04:23:30;113.57;;;44.70;;
52586;SDS011;38480;52.724;6.436;2023-02-14T04:25:56;100.13;;;40.17;;
52586;SDS011;38480;52.724;6.436;2023-02-14T04:28:23;114.33;;;41.33;;
52586;SDS011;38480;52.724;6.436;2023-02-14T04:30:49;126.27;;;46.90;;
52586;SDS011;38480;52.724;6.436;2023-02-14T04:33:15;151.77;;;51.17;;
52586;SDS011;38480;52.724;6.436;2023-02-14T04:35:41;137.53;;;47.83;;
52586;SDS011;38480;52.724;6.436;2023-02-14T04:38:07;114.07;;;43.97;;
52586;SDS011;38480;52.724;6.436;2023-02-14T04:40:33;140.50;;;50.83;;
52586;SDS011;38480;52.724;6.436;2023-02-14T04:42:59;152.80;;;53.57;;
52586;SDS011;38480;52.724;6.436;2023-02-14T04:45:25;154.40;;;55.47;;
52586;SDS011;38480;52.724;6.436;2023-02-14T04:47:51;129.37;;;48.90;;
52586;SDS011;38480;52.724;6.436;2023-02-14T04:50:17;165.30;;;53.00;;
52586;SDS011;38480;52.724;6.436;2023-02-14T04:52:43;134.27;;;49.03;;
52586;SDS011;38480;52.724;6.436;2023-02-14T04:55:09;106.53;;;43.37;;
52586;SDS011;38480;52.724;6.436;2023-02-14T04:57:35;132.97;;;49.63;;
52586;SDS011;38480;52.724;6.436;2023-02-14T05:00:02;159.20;;;55.20;;
52586;SDS011;38480;52.724;6.436;2023-02-14T05:02:28;149.90;;;51.80;;
52586;SDS011;38480;52.724;6.436;2023-02-14T05:04:54;142.43;;;51.47;;
52586;SDS011;38480;52.724;6.436;2023-02-14T05:07:20;168.90;;;54.90;;
52586;SDS011;38480;52.724;6.436;2023-02-14T05:09:46;140.37;;;51.37;;
52586;SDS011;38480;52.724;6.436;2023-02-14T05:12:12;125.77;;;46.23;;
52586;SDS011;38480;52.724;6.436;2023-02-14T05:14:40;139.40;;;52.33;;
52586;SDS011;38480;52.724;6.436;2023-02-14T05:17:06;127.03;;;50.23;;
52586;SDS011;38480;52.724;6.436;2023-02-14T05:19:32;144.43;;;54.87;;
52586;SDS011;38480;52.724;6.436;2023-02-14T05:21:58;134.73;;;51.50;;
52586;SDS011;38480;52.724;6.436;2023-02-14T05:24:24;130.53;;;49.07;;
52586;SDS011;38480;52.724;6.436;2023-02-14T05:26:50;132.67;;;49.23;;
52586;SDS011;38480;52.724;6.436;2023-02-14T05:29:16;149.07;;;56.17;;
52586;SDS011;38480;52.724;6.436;2023-02-14T05:31:42;174.67;;;61.43;;
52586;SDS011;38480;52.724;6.436;2023-02-14T05:34:08;142.50;;;56.80;;
52586;SDS011;38480;52.724;6.436;2023-02-14T05:36:34;158.80;;;58.10;;
52586;SDS011;38480;52.724;6.436;2023-02-14T05:39:00;172.67;;;61.33;;
52586;SDS011;38480;52.724;6.436;2023-02-14T05:41:26;190.17;;;63.97;;
52586;SDS011;38480;52.724;6.436;2023-02-14T05:43:52;160.60;;;60.73;;
52586;SDS011;38480;52.724;6.436;2023-02-14T05:46:18;142.63;;;55.60;;
52586;SDS011;38480;52.724;6.436;2023-02-14T05:48:44;134.47;;;52.23;;
52586;SDS011;38480;52.724;6.436;2023-02-14T05:51:10;137.83;;;55.87;;
52586;SDS011;38480;52.724;6.436;2023-02-14T05:53:37;135.37;;;54.87;;
52586;SDS011;38480;52.724;6.436;2023-02-14T05:56:03;123.97;;;49.00;;
52586;SDS011;38480;52.724;6.436;2023-02-14T05:58:29;116.13;;;45.03;;
52586;SDS011;38480;52.724;6.436;2023-02-14T06:00:56;124.13;;;52.10;;
52586;SDS011;38480;52.724;6.436;2023-02-14T06:03:22;115.80;;;46.67;;
52586;SDS011;38480;52.724;6.436;2023-02-14T06:05:48;121.23;;;47.03;;
52586;SDS011;38480;52.724;6.436;2023-02-14T06:08:14;149.83;;;54.90;;
52586;SDS011;38480;52.724;6.436;2023-02-14T06:10:40;131.63;;;54.43;;
52586;SDS011;38480;52.724;6.436;2023-02-14T06:13:06;149.97;;;58.10;;
52586;SDS011;38480;52.724;6.436;2023-02-14T06:15:36;138.73;;;58.57;;
52586;SDS011;38480;52.724;6.436;2023-02-14T06:18:02;139.97;;;53.07;;
52586;SDS011;38480;52.724;6.436;2023-02-14T06:20:29;157.63;;;56.90;;
52586;SDS011;38480;52.724;6.436;2023-02-14T06:22:55;172.17;;;60.37;;
52586;SDS011;38480;52.724;6.436;2023-02-14T06:25:22;167.67;;;61.30;;
52586;SDS011;38480;52.724;6.436;2023-02-14T06:27:48;171.37;;;62.77;;
52586;SDS011;38480;52.724;6.436;2023-02-14T06:30:15;174.90;;;65.07;;
52586;SDS011;38480;52.724;6.436;2023-02-14T06:32:41;176.03;;;64.97;;
52586;SDS011;38480;52.724;6.436;2023-02-14T06:35:07;184.50;;;67.00;;
52586;SDS011;38480;52.724;6.436;2023-02-14T06:37:34;189.13;;;68.07;;
52586;SDS011;38480;52.724;6.436;2023-02-14T06:40:00;196.47;;;67.93;;
52586;SDS011;38480;52.724;6.436;2023-02-14T06:42:26;139.43;;;57.73;;
52586;SDS011;38480;52.724;6.436;2023-02-14T06:44:52;185.33;;;69.63;;
52586;SDS011;38480;52.724;6.436;2023-02-14T06:47:18;175.73;;;66.10;;
52586;SDS011;38480;52.724;6.436;2023-02-14T06:49:44;156.70;;;62.20;;
52586;SDS011;38480;52.724;6.436;2023-02-14T06:52:10;172.30;;;66.77;;
52586;SDS011;38480;52.724;6.436;2023-02-14T06:54:36;176.00;;;66.20;;
52586;SDS011;38480;52.724;6.436;2023-02-14T06:57:02;178.30;;;66.80;;
52586;SDS011;38480;52.724;6.436;2023-02-14T06:59:28;176.73;;;66.87;;
52586;SDS011;38480;52.724;6.436;2023-02-14T07:01:54;194.33;;;72.90;;
52586;SDS011;38480;52.724;6.436;2023-02-14T07:04:20;198.87;;;72.17;;
52586;SDS011;38480;52.724;6.436;2023-02-14T07:06:46;181.50;;;68.53;;
52586;SDS011;38480;52.724;6.436;2023-02-14T07:09:12;189.40;;;69.60;;
52586;SDS011;38480;52.724;6.436;2023-02-14T07:11:41;174.10;;;69.40;;
52586;SDS011;38480;52.724;6.436;2023-02-14T07:14:08;178.70;;;70.63;;
52586;SDS011;38480;52.724;6.436;2023-02-14T07:16:34;194.13;;;71.40;;
52586;SDS011;38480;52.724;6.436;2023-02-14T07:19:00;180.47;;;70.57;;
52586;SDS011;38480;52.724;6.436;2023-02-14T07:21:26;178.13;;;70.93;;
52586;SDS011;38480;52.724;6.436;2023-02-14T07:23:52;198.03;;;75.60;;
52586;SDS011;38480;52.724;6.436;2023-02-14T07:26:18;194.40;;;76.87;;
52586;SDS011;38480;52.724;6.436;2023-02-14T07:28:44;193.97;;;78.70;;
52586;SDS011;38480;52.724;6.436;2023-02-14T07:31:10;191.87;;;77.33;;
52586;SDS011;38480;52.724;6.436;2023-02-14T07:33:37;218.77;;;82.03;;
52586;SDS011;38480;52.724;6.436;2023-02-14T07:36:03;200.60;;;78.33;;
52586;SDS011;38480;52.724;6.436;2023-02-14T07:38:29;198.83;;;76.07;;
52586;SDS011;38480;52.724;6.436;2023-02-14T07:40:55;200.67;;;79.83;;
52586;SDS011;38480;52.724;6.436;2023-02-14T07:43:21;192.97;;;76.30;;
52586;SDS011;38480;52.724;6.436;2023-02-14T07:45:47;196.40;;;78.23;;
52586;SDS011;38480;52.724;6.436;2023-02-14T07:48:13;193.10;;;77.27;;
52586;SDS011;38480;52.724;6.436;2023-02-14T07:50:39;200.23;;;78.43;;
52586;SDS011;38480;52.724;6.436;2023-02-14T07:53:05;199.23;;;82.67;;
52586;SDS011;38480;52.724;6.436;2023-02-14T07:55:32;174.77;;;75.97;;
52586;SDS011;38480;52.724;6.436;2023-02-14T07:57:58;181.40;;;77.40;;
52586;SDS011;38480;52.724;6.436;2023-02-14T08:00:25;250.50;;;90.20;;
52586;SDS011;38480;52.724;6.436;2023-02-14T08:02:51;174.43;;;78.33;;
52586;SDS011;38480;52.724;6.436;2023-02-14T08:05:20;195.73;;;76.37;;
52586;SDS011;38480;52.724;6.436;2023-02-14T08:07:46;167.57;;;75.90;;
52586;SDS011;38480;52.724;6.436;2023-02-14T08:10:12;148.83;;;69.13;;
52586;SDS011;38480;52.724;6.436;2023-02-14T08:12:38;148.50;;;71.30;;
52586;SDS011;38480;52.724;6.436;2023-02-14T08:15:23;154.77;;;69.87;;
52586;SDS011;38480;52.724;6.436;2023-02-14T08:18:07;142.40;;;67.63;;
52586;SDS011;38480;52.724;6.436;2023-02-14T08:20:34;138.17;;;66.97;;
52586;SDS011;38480;52.724;6.436;2023-02-14T08:23:00;129.37;;;64.73;;
52586;SDS011;38480;52.724;6.436;2023-02-14T08:25:26;149.63;;;69.93;;
52586;SDS011;38480;52.724;6.436;2023-02-14T08:27:52;140.27;;;68.37;;
52586;SDS011;38480;52.724;6.436;2023-02-14T08:30:19;126.87;;;65.00;;
52586;SDS011;38480;52.724;6.436;2023-02-14T08:32:45;116.87;;;62.07;;
52586;SDS011;38480;52.724;6.436;2023-02-14T08:35:11;135.23;;;65.87;;
52586;SDS011;38480;52.724;6.436;2023-02-14T08:37:37;123.17;;;63.03;;
52586;SDS011;38480;52.724;6.436;2023-02-14T08:40:04;114.83;;;59.80;;
52586;SDS011;38480;52.724;6.436;2023-02-14T08:42:30;114.03;;;58.60;;
52586;SDS011;38480;52.724;6.436;2023-02-14T08:44:56;120.07;;;62.50;;
52586;SDS011;38480;52.724;6.436;2023-02-14T08:47:22;119.20;;;61.63;;
52586;SDS011;38480;52.724;6.436;2023-02-14T08:49:48;103.27;;;56.80;;
52586;SDS011;38480;52.724;6.436;2023-02-14T08:52:15;118.03;;;61.47;;
52586;SDS011;38480;52.724;6.436;2023-02-14T08:54:41;111.77;;;58.93;;
52586;SDS011;38480;52.724;6.436;2023-02-14T08:57:07;102.40;;;56.20;;
52586;SDS011;38480;52.724;6.436;2023-02-14T08:59:33;95.50;;;51.87;;
52586;SDS011;38480;52.724;6.436;2023-02-14T09:01:59;83.67;;;47.23;;
52586;SDS011;38480;52.724;6.436;2023-02-14T09:04:25;87.23;;;51.43;;
52586;SDS011;38480;52.724;6.436;2023-02-14T09:06:51;93.00;;;53.87;;
52586;SDS011;38480;52.724;6.436;2023-02-14T09:09:17;85.83;;;48.93;;
52586;SDS011;38480;52.724;6.436;2023-02-14T09:11:43;95.43;;;52.53;;
52586;SDS011;38480;52.724;6.436;2023-02-14T09:14:09;82.90;;;47.00;;
52586;SDS011;38480;52.724;6.436;2023-02-14T09:16:35;82.80;;;46.77;;
52586;SDS011;38480;52.724;6.436;2023-02-14T09:19:01;76.67;;;44.57;;
52586;SDS011;38480;52.724;6.436;2023-02-14T09:21:27;79.43;;;46.40;;
52586;SDS011;38480;52.724;6.436;2023-02-14T09:23:55;88.10;;;51.23;;
52586;SDS011;38480;52.724;6.436;2023-02-14T09:26:21;73.23;;;45.83;;
52586;SDS011;38480;52.724;6.436;2023-02-14T09:28:47;76.77;;;46.40;;
52586;SDS011;38480;52.724;6.436;2023-02-14T09:31:14;72.70;;;43.77;;
52586;SDS011;38480;52.724;6.436;2023-02-14T09:33:41;75.07;;;46.00;;
52586;SDS011;38480;52.724;6.436;2023-02-14T09:36:07;81.97;;;47.40;;
52586;SDS011;38480;52.724;6.436;2023-02-14T09:38:36;73.70;;;45.23;;
52586;SDS011;38480;52.724;6.436;2023-02-14T09:41:06;83.37;;;48.90;;
52586;SDS011;38480;52.724;6.436;2023-02-14T09:43:38;93.50;;;56.67;;
52586;SDS011;38480;52.724;6.436;2023-02-14T09:46:10;88.40;;;52.97;;
52586;SDS011;38480;52.724;6.436;2023-02-14T09:48:40;82.37;;;51.37;;
52586;SDS011;38480;52.724;6.436;2023-02-14T09:51:10;70.10;;;47.87;;
52586;SDS011;38480;52.724;6.436;2023-02-14T09:53:49;61.77;;;39.20;;
52586;SDS011;38480;52.724;6.436;2023-02-14T09:56:19;46.07;;;33.50;;
52586;SDS011;38480;52.724;6.436;2023-02-14T10:01:41;45.00;;;28.93;;
52586;SDS011;38480;52.724;6.436;2023-02-14T10:04:15;39.80;;;27.80;;
52586;SDS011;38480;52.724;6.436;2023-02-14T10:09:36;30.00;;;21.60;;
52586;SDS011;38480;52.724;6.436;2023-02-14T10:11:57;29.20;;;22.17;;
52586;SDS011;38480;52.724;6.436;2023-02-14T10:14:25;26.80;;;19.43;;
52586;SDS011;38480;52.724;6.436;2023-02-14T10:19:21;23.67;;;17.90;;
52586;SDS011;38480;52.724;6.436;2023-02-14T10:21:56;22.83;;;16.73;;
52586;SDS011;38480;52.724;6.436;2023-02-14T10:24:32;22.57;;;16.50;;
52586;SDS011;38480;52.724;6.436;2023-02-14T10:27:02;20.00;;;15.70;;
52586;SDS011;38480;52.724;6.436;2023-02-14T10:29:28;25.13;;;17.87;;
52586;SDS011;38480;52.724;6.436;2023-02-14T10:31:56;26.03;;;17.20;;
52586;SDS011;38480;52.724;6.436;2023-02-14T10:45:18;23.63;;;15.27;;
52586;SDS011;38480;52.724;6.436;2023-02-14T10:47:31;23.53;;;16.00;;
52586;SDS011;38480;52.724;6.436;2023-02-14T10:50:09;22.50;;;16.27;;
52586;SDS011;38480;52.724;6.436;2023-02-14T10:52:38;24.33;;;17.57;;
52586;SDS011;38480;52.724;6.436;2023-02-14T10:55:09;25.33;;;17.50;;
52586;SDS011;38480;52.724;6.436;2023-02-14T10:57:39;22.43;;;17.00;;
52586;SDS011;38480;52.724;6.436;2023-02-14T11:00:06;21.13;;;16.17;;
52586;SDS011;38480;52.724;6.436;2023-02-14T11:02:39;21.43;;;16.50;;
52586;SDS011;38480;52.724;6.436;2023-02-14T11:05:06;23.97;;;16.67;;
52586;SDS011;38480;52.724;6.436;2023-02-14T11:07:33;24.23;;;16.97;;
52586;SDS011;38480;52.724;6.436;2023-02-14T11:09:59;25.57;;;17.57;;
52586;SDS011;38480;52.724;6.436;2023-02-14T11:12:32;24.90;;;17.60;;
52586;SDS011;38480;52.724;6.436;2023-02-14T11:17:40;24.17;;;18.27;;
52586;SDS011;38480;52.724;6.436;2023-02-14T11:22:44;23.27;;;17.03;;
52586;SDS011;38480;52.724;6.436;2023-02-14T11:27:43;24.23;;;18.20;;
52586;SDS011;38480;52.724;6.436;2023-02-14T11:30:26;23.95;;;18.30;;
52586;SDS011;38480;52.724;6.436;2023-02-14T11:32:53;25.63;;;18.13;;
52586;SDS011;38480;52.724;6.436;2023-02-14T11:35:20;26.30;;;17.93;;
52586;SDS011;38480;52.724;6.436;2023-02-14T11:37:51;25.17;;;18.83;;
52586;SDS011;38480;52.724;6.436;2023-02-14T11:40:31;29.07;;;18.53;;
52586;SDS011;38480;52.724;6.436;2023-02-14T11:42:59;23.87;;;18.40;;
52586;SDS011;38480;52.724;6.436;2023-02-14T11:45:26;23.93;;;17.73;;
52586;SDS011;38480;52.724;6.436;2023-02-14T11:48:15;20.93;;;16.70;;
52586;SDS011;38480;52.724;6.436;2023-02-14T11:50:41;28.27;;;19.90;;
52586;SDS011;38480;52.724;6.436;2023-02-14T11:53:12;25.20;;;19.13;;
52586;SDS011;38480;52.724;6.436;2023-02-14T11:55:38;31.30;;;20.77;;
52586;SDS011;38480;52.724;6.436;2023-02-14T11:58:04;29.80;;;21.27;;
52586;SDS011;38480;52.724;6.436;2023-02-14T12:00:32;28.43;;;20.60;;
52586;SDS011;38480;52.724;6.436;2023-02-14T12:03:00;31.40;;;21.43;;
52586;SDS011;38480;52.724;6.436;2023-02-14T12:05:36;26.50;;;19.27;;
52586;SDS011;38480;52.724;6.436;2023-02-14T12:08:09;26.50;;;20.73;;
52586;SDS011;38480;52.724;6.436;2023-02-14T12:10:39;29.93;;;20.83;;
52586;SDS011;38480;52.724;6.436;2023-02-14T12:15:35;32.27;;;24.07;;
52586;SDS011;38480;52.724;6.436;2023-02-14T12:26:16;28.53;;;20.43;;
52586;SDS011;38480;52.724;6.436;2023-02-14T12:28:22;25.17;;;19.73;;
52586;SDS011;38480;52.724;6.436;2023-02-14T12:30:54;25.60;;;20.07;;
52586;SDS011;38480;52.724;6.436;2023-02-14T12:33:21;31.13;;;21.57;;
52586;SDS011;38480;52.724;6.436;2023-02-14T12:43:33;24.87;;;18.97;;
52586;SDS011;38480;52.724;6.436;2023-02-14T12:48:55;26.97;;;19.40;;
52586;SDS011;38480;52.724;6.436;2023-02-14T12:54:01;24.27;;;19.80;;
52586;SDS011;38480;52.724;6.436;2023-02-14T13:01:34;27.27;;;20.20;;
52586;SDS011;38480;52.724;6.436;2023-02-14T13:04:13;24.50;;;18.63;;
52586;SDS011;38480;52.724;6.436;2023-02-14T13:06:46;25.97;;;20.63;;
52586;SDS011;38480;52.724;6.436;2023-02-14T13:22:20;23.77;;;19.47;;
52586;SDS011;38480;52.724;6.436;2023-02-14T13:24:48;25.10;;;19.73;;
52586;SDS011;38480;52.724;6.436;2023-02-14T13:27:17;26.10;;;19.40;;
52586;SDS011;38480;52.724;6.436;2023-02-14T13:29:49;25.57;;;19.77;;
52586;SDS011;38480;52.724;6.436;2023-02-14T13:32:17;24.93;;;19.87;;
52586;SDS011;38480;52.724;6.436;2023-02-14T13:34:45;26.10;;;21.00;;
52586;SDS011;38480;52.724;6.436;2023-02-14T13:37:12;24.97;;;19.40;;
52586;SDS011;38480;52.724;6.436;2023-02-14T13:39:43;25.10;;;20.47;;
52586;SDS011;38480;52.724;6.436;2023-02-14T13:42:10;25.37;;;20.63;;
52586;SDS011;38480;52.724;6.436;2023-02-14T13:44:40;30.70;;;21.73;;
52586;SDS011;38480;52.724;6.436;2023-02-14T13:47:07;28.33;;;22.23;;
52586;SDS011;38480;52.724;6.436;2023-02-14T13:49:44;28.67;;;22.50;;
52586;SDS011;38480;52.724;6.436;2023-02-14T13:52:11;28.43;;;22.97;;
52586;SDS011;38480;52.724;6.436;2023-02-14T13:54:46;28.23;;;23.63;;
52586;SDS011;38480;52.724;6.436;2023-02-14T14:02:56;28.97;;;22.63;;
52586;SDS011;38480;52.724;6.436;2023-02-14T14:08:55;33.17;;;23.73;;
52586;SDS011;38480;52.724;6.436;2023-02-14T14:10:58;31.17;;;24.17;;
52586;SDS011;38480;52.724;6.436;2023-02-14T14:18:45;30.07;;;23.37;;
52586;SDS011;38480;52.724;6.436;2023-02-14T14:21:15;33.03;;;24.67;;
52586;SDS011;38480;52.724;6.436;2023-02-14T14:23:41;31.23;;;23.80;;
52586;SDS011;38480;52.724;6.436;2023-02-14T14:26:26;28.57;;;22.90;;
52586;SDS011;38480;52.724;6.436;2023-02-14T14:28:54;31.27;;;23.27;;
52586;SDS011;38480;52.724;6.436;2023-02-14T14:31:20;28.13;;;23.13;;
52586;SDS011;38480;52.724;6.436;2023-02-14T14:33:55;26.30;;;22.20;;
52586;SDS011;38480;52.724;6.436;2023-02-14T14:36:21;30.10;;;24.60;;
52586;SDS011;38480;52.724;6.436;2023-02-14T14:38:49;30.13;;;23.83;;
52586;SDS011;38480;52.724;6.436;2023-02-14T14:41:15;30.57;;;24.57;;
52586;SDS011;38480;52.724;6.436;2023-02-14T14:43:41;28.40;;;23.57;;
52586;SDS011;38480;52.724;6.436;2023-02-14T14:46:08;28.23;;;23.17;;
52586;SDS011;38480;52.724;6.436;2023-02-14T14:48:45;25.93;;;21.37;;
52586;SDS011;38480;52.724;6.436;2023-02-14T14:53:44;28.80;;;23.33;;
52586;SDS011;38480;52.724;6.436;2023-02-14T14:56:22;28.80;;;23.67;;
52586;SDS011;38480;52.724;6.436;2023-02-14T14:58:49;29.27;;;22.73;;
52586;SDS011;38480;52.724;6.436;2023-02-14T15:01:32;27.00;;;21.67;;
52586;SDS011;38480;52.724;6.436;2023-02-14T15:06:38;29.17;;;23.50;;
52586;SDS011;38480;52.724;6.436;2023-02-14T15:09:15;30.47;;;22.20;;
52586;SDS011;38480;52.724;6.436;2023-02-14T15:11:42;29.27;;;23.47;;
52586;SDS011;38480;52.724;6.436;2023-02-14T15:14:28;31.87;;;24.60;;
52586;SDS011;38480;52.724;6.436;2023-02-14T15:17:05;30.23;;;24.23;;
52586;SDS011;38480;52.724;6.436;2023-02-14T15:19:35;29.30;;;22.80;;
52586;SDS011;38480;52.724;6.436;2023-02-14T15:22:06;28.48;;;22.33;;
52586;SDS011;38480;52.724;6.436;2023-02-14T15:24:32;28.43;;;22.67;;
52586;SDS011;38480;52.724;6.436;2023-02-14T15:26:59;25.97;;;21.47;;
52586;SDS011;38480;52.724;6.436;2023-02-14T15:29:29;27.87;;;21.97;;
52586;SDS011;38480;52.724;6.436;2023-02-14T15:31:56;27.93;;;24.37;;
52586;SDS011;38480;52.724;6.436;2023-02-14T15:34:24;30.30;;;24.30;;
52586;SDS011;38480;52.724;6.436;2023-02-14T15:36:52;30.77;;;24.77;;
52586;SDS011;38480;52.724;6.436;2023-02-14T15:39:34;27.60;;;22.37;;
52586;SDS011;38480;52.724;6.436;2023-02-14T15:42:01;28.10;;;23.10;;
52586;SDS011;38480;52.724;6.436;2023-02-14T15:44:28;30.00;;;23.60;;
52586;SDS011;38480;52.724;6.436;2023-02-14T15:46:55;28.93;;;23.13;;
52586;SDS011;38480;52.724;6.436;2023-02-14T15:49:23;32.50;;;25.43;;
52586;SDS011;38480;52.724;6.436;2023-02-14T15:51:52;28.83;;;23.93;;
52586;SDS011;38480;52.724;6.436;2023-02-14T15:54:20;30.50;;;24.90;;
52586;SDS011;38480;52.724;6.436;2023-02-14T15:56:48;28.70;;;23.73;;
52586;SDS011;38480;52.724;6.436;2023-02-14T15:59:16;31.73;;;25.27;;
52586;SDS011;38480;52.724;6.436;2023-02-14T16:01:51;30.53;;;22.83;;
52586;SDS011;38480;52.724;6.436;2023-02-14T16:04:21;32.50;;;24.80;;
52586;SDS011;38480;52.724;6.436;2023-02-14T16:06:48;33.23;;;25.63;;
52586;SDS011;38480;52.724;6.436;2023-02-14T16:09:28;35.23;;;25.17;;
52586;SDS011;38480;52.724;6.436;2023-02-14T16:11:54;34.53;;;26.20;;
52586;SDS011;38480;52.724;6.436;2023-02-14T16:14:31;32.27;;;24.37;;
52586;SDS011;38480;52.724;6.436;2023-02-14T16:17:00;36.40;;;24.43;;
52586;SDS011;38480;52.724;6.436;2023-02-14T16:19:31;35.80;;;25.90;;
52586;SDS011;38480;52.724;6.436;2023-02-14T16:21:57;31.57;;;23.77;;
52586;SDS011;38480;52.724;6.436;2023-02-14T16:24:23;35.30;;;25.63;;
52586;SDS011;38480;52.724;6.436;2023-02-14T16:26:49;36.43;;;24.13;;
52586;SDS011;38480;52.724;6.436;2023-02-14T16:29:16;37.80;;;25.70;;